createdAt,value
2022-11-13T00:01:22.665Z,102361.91
2022-11-13T00:03:51.126Z,102362.09
2022-11-13T00:06:20.395Z,102363.84
2022-11-13T00:08:49.602Z,102357.44
2022-11-13T00:11:20.579Z,102354.19
2022-11-13T00:13:49.877Z,102357.19
2022-11-13T00:16:22.643Z,102356.75
2022-11-13T00:18:51.032Z,102356.97
2022-11-13T00:21:21.482Z,102354.81
2022-11-13T00:23:50.849Z,102363.16
2022-11-13T00:26:21.617Z,102350.13
2022-11-13T00:28:55.402Z,102346.09
2022-11-13T00:31:25.794Z,102346.75
2022-11-13T00:34:14.155Z,102344.13
2022-11-13T00:36:42.877Z,102339.28
2022-11-13T00:39:11.338Z,102334.16
2022-11-13T00:41:39.635Z,102333.75
2022-11-13T00:44:08.291Z,102335.69
2022-11-13T00:46:38.035Z,102337.78
2022-11-13T00:49:06.707Z,102321.59
2022-11-13T00:51:35.080Z,102320.31
2022-11-13T00:54:03.418Z,102325.22
2022-11-13T00:56:31.750Z,102323.69
2022-11-13T00:59:00.087Z,102320.72
2022-11-13T01:01:28.538Z,102320.06
2022-11-13T01:03:58.510Z,102324.31
2022-11-13T01:06:29.014Z,102319.03
2022-11-13T01:08:59.779Z,102312.84
2022-11-13T01:11:30.805Z,102317.97
2022-11-13T01:13:59.435Z,102315.59
2022-11-13T01:16:29.441Z,102315.16
2022-11-13T01:18:59.411Z,102313.25
2022-11-13T01:21:29.705Z,102310.06
2022-11-13T01:23:58.220Z,102305.81
2022-11-13T01:26:28.880Z,102300.91
2022-11-13T01:28:59.849Z,102303.03
2022-11-13T01:31:31.418Z,102297.91
2022-11-13T01:34:01.406Z,102298.97
2022-11-13T01:36:30.835Z,102294.28
2022-11-13T01:38:59.689Z,102291.53
2022-11-13T01:41:31.113Z,102286.84
2022-11-13T01:44:00.640Z,102290.69
2022-11-13T01:46:32.211Z,102288.97
2022-11-13T01:49:16.163Z,102295.56
2022-11-13T01:51:51.966Z,102289.59
2022-11-13T01:54:26.379Z,102288.56
2022-11-13T01:56:55.999Z,102285.56
2022-11-13T01:59:28.054Z,102284.72
2022-11-13T02:01:57.699Z,102280.00
2022-11-13T02:04:29.691Z,102270.44
2022-11-13T02:07:01.651Z,102271.69
2022-11-13T02:09:35.174Z,102270.63
2022-11-13T02:12:04.888Z,102264.03
2022-11-13T02:14:34.104Z,102269.16
2022-11-13T02:17:09.568Z,102258.44
2022-11-13T02:19:44.747Z,102264.63
2022-11-13T02:22:21.375Z,102258.50
2022-11-13T02:24:54.811Z,102259.13
2022-11-13T02:27:30.310Z,102253.56
2022-11-13T02:29:58.663Z,102259.78
2022-11-13T02:32:26.998Z,102252.75
2022-11-13T02:34:55.373Z,102259.09
2022-11-13T02:37:23.696Z,102259.97
2022-11-13T02:39:53.626Z,102244.22
2022-11-13T02:42:21.951Z,102246.31
2022-11-13T02:44:50.518Z,102241.84
2022-11-13T02:47:18.879Z,102242.94
2022-11-13T02:49:47.411Z,102242.06
2022-11-13T02:52:15.806Z,102242.72
2022-11-13T02:54:44.188Z,102239.13
2022-11-13T02:57:13.886Z,102241.22
2022-11-13T02:59:42.469Z,102241.88
2022-11-13T03:02:11.108Z,102242.28
2022-11-13T03:05:10.117Z,102247.59
2022-11-13T03:07:27.791Z,102245.47
2022-11-13T03:09:56.912Z,102238.69
2022-11-13T03:12:26.879Z,102232.69
2022-11-13T03:14:55.223Z,102235.19
2022-11-13T03:17:23.564Z,102235.47
2022-11-13T03:19:51.906Z,102222.88
2022-11-13T03:22:20.225Z,102226.94
2022-11-13T03:24:48.761Z,102223.31
2022-11-13T03:27:17.100Z,102216.06
2022-11-13T03:29:46.810Z,102211.56
2022-11-13T03:32:15.153Z,102215.00
2022-11-13T03:34:43.535Z,102209.88
2022-11-13T03:37:11.890Z,102210.31
2022-11-13T03:39:40.230Z,102211.56
2022-11-13T03:42:08.539Z,102206.44
2022-11-13T03:44:36.886Z,102210.53
2022-11-13T03:47:06.621Z,102203.47
2022-11-13T03:49:34.972Z,102204.13
2022-11-13T03:52:03.314Z,102203.25
2022-11-13T03:54:31.765Z,102197.09
2022-11-13T03:57:00.127Z,102200.72
2022-11-13T03:59:28.464Z,102193.03
2022-11-13T04:01:56.827Z,102189.81
2022-11-13T04:04:26.596Z,102198.13
2022-11-13T04:06:54.965Z,102187.72
2022-11-13T04:09:23.367Z,102187.97
2022-11-13T04:11:51.732Z,102189.44
2022-11-13T04:14:20.144Z,102192.16
2022-11-13T04:16:48.454Z,102191.72
2022-11-13T04:19:16.771Z,102189.59
2022-11-13T04:21:46.475Z,102193.66
2022-11-13T04:24:14.842Z,102185.34
2022-11-13T04:26:43.150Z,102187.94
2022-11-13T04:29:11.487Z,102181.94
2022-11-13T04:31:39.808Z,102180.47
2022-11-13T04:34:09.584Z,102177.91
2022-11-13T04:36:37.915Z,102170.88
2022-11-13T04:39:08.010Z,102176.19
2022-11-13T04:41:55.527Z,102161.94
2022-11-13T04:44:24.103Z,102168.72
2022-11-13T04:46:52.466Z,102161.09
2022-11-13T04:49:20.797Z,102165.13
2022-11-13T04:51:49.131Z,102173.00
2022-11-13T04:54:22.003Z,102160.84
2022-11-13T04:56:52.718Z,102165.94
2022-11-13T04:59:21.071Z,102161.50
2022-11-13T05:01:49.457Z,102171.91
2022-11-13T05:04:18.002Z,102163.59
2022-11-13T05:06:46.401Z,102171.47
2022-11-13T05:09:15.482Z,102166.19
2022-11-13T05:11:45.210Z,102167.88
2022-11-13T05:14:14.074Z,102171.06
2022-11-13T05:16:42.406Z,102171.88
2022-11-13T05:19:10.855Z,102164.00
2022-11-13T05:21:40.542Z,102166.34
2022-11-13T05:24:11.571Z,102163.59
2022-11-13T05:26:40.415Z,102152.47
2022-11-13T05:29:10.164Z,102150.59
2022-11-13T05:31:38.567Z,102149.53
2022-11-13T05:34:07.194Z,102149.53
2022-11-13T05:36:35.911Z,102148.03
2022-11-13T05:39:04.597Z,102138.66
2022-11-13T05:41:33.552Z,102141.41
2022-11-13T05:44:01.890Z,102142.47
2022-11-13T05:46:31.999Z,102132.50
2022-11-13T05:49:02.634Z,102135.88
2022-11-13T05:51:33.728Z,102131.66
2022-11-13T05:54:03.281Z,102134.81
2022-11-13T05:56:35.022Z,102129.91
2022-11-13T05:59:05.025Z,102125.22
2022-11-13T06:01:39.456Z,102127.81
2022-11-13T06:04:09.183Z,102126.53
2022-11-13T06:06:37.682Z,102123.69
2022-11-13T06:09:07.768Z,102116.25
2022-11-13T06:11:36.122Z,102105.19
2022-11-13T06:14:04.444Z,102108.59
2022-11-13T06:16:39.610Z,102093.91
2022-11-13T06:19:10.983Z,102097.53
2022-11-13T06:21:41.660Z,102103.03
2022-11-13T06:24:13.227Z,102093.28
2022-11-13T06:26:42.390Z,102086.47
2022-11-13T06:29:14.788Z,102087.75
2022-11-13T06:31:44.603Z,102078.63
2022-11-13T06:34:12.955Z,102083.06
2022-11-13T06:36:41.284Z,102077.72
2022-11-13T06:39:10.994Z,102084.28
2022-11-13T06:41:40.737Z,102087.50
2022-11-13T06:44:09.417Z,102076.03
2022-11-13T06:46:37.790Z,102084.69
2022-11-13T06:49:07.692Z,102086.59
2022-11-13T06:51:36.207Z,102084.50
2022-11-13T06:54:04.629Z,102082.59
2022-11-13T06:56:32.959Z,102083.69
2022-11-13T06:59:01.865Z,102081.34
2022-11-13T07:01:31.501Z,102080.69
2022-11-13T07:03:59.839Z,102069.88
2022-11-13T07:06:29.514Z,102073.66
2022-11-13T07:08:57.867Z,102069.41
2022-11-13T07:11:28.771Z,102068.38
2022-11-13T07:13:57.460Z,102071.56
2022-11-13T07:16:34.728Z,102063.00
2022-11-13T07:19:12.694Z,102068.94
2022-11-13T07:21:42.353Z,102073.44
2022-11-13T07:24:15.660Z,102063.88
2022-11-13T07:26:45.335Z,102056.88
2022-11-13T07:29:13.722Z,102054.53
2022-11-13T07:31:42.064Z,102055.78
2022-11-13T07:34:10.406Z,102053.25
2022-11-13T07:36:38.711Z,102054.34
2022-11-13T07:39:08.462Z,102051.38
2022-11-13T07:41:36.792Z,102051.34
2022-11-13T07:44:08.977Z,102053.03
2022-11-13T07:46:38.019Z,102051.09
2022-11-13T07:49:06.807Z,102040.69
2022-11-13T07:51:35.116Z,102046.84
2022-11-13T07:54:03.491Z,102051.50
2022-11-13T07:56:33.226Z,102040.03
2022-11-13T07:59:01.595Z,102047.06
2022-11-13T08:01:29.958Z,102053.44
2022-11-13T08:03:58.412Z,102047.50
2022-11-13T08:06:28.098Z,102051.50
2022-11-13T08:08:56.464Z,102057.66
2022-11-13T08:11:24.805Z,102040.03
2022-11-13T08:13:55.374Z,102049.31
2022-11-13T08:16:24.395Z,102043.16
2022-11-13T08:18:53.187Z,102042.34
2022-11-13T08:21:21.554Z,102036.19
2022-11-13T08:23:50.771Z,102036.44
2022-11-13T08:26:19.621Z,102041.94
2022-11-13T08:28:48.556Z,102035.78
2022-11-13T08:31:18.528Z,102045.84
2022-11-13T08:33:46.967Z,102046.44
2022-11-13T08:36:15.290Z,102032.81
2022-11-13T08:38:43.724Z,102030.88
2022-11-13T08:41:12.034Z,102041.50
2022-11-13T08:43:40.367Z,102029.78
2022-11-13T08:46:08.960Z,102026.59
2022-11-13T08:48:38.820Z,102016.84
2022-11-13T08:51:07.377Z,102018.16
2022-11-13T08:53:35.692Z,102013.03
2022-11-13T08:56:04.919Z,102010.28
2022-11-13T08:58:33.299Z,102002.81
2022-11-13T09:01:01.963Z,102001.34
2022-11-13T09:03:30.384Z,101991.97
2022-11-13T09:06:00.082Z,101987.09
2022-11-13T09:08:28.599Z,101991.31
2022-11-13T09:10:56.971Z,101990.19
2022-11-13T09:13:25.338Z,101984.19
2022-11-13T09:15:53.646Z,101983.88
2022-11-13T09:18:21.938Z,101977.31
2022-11-13T09:20:50.277Z,101982.41
2022-11-13T09:23:20.163Z,101982.66
2022-11-13T09:25:49.090Z,101978.38
2022-11-13T09:28:17.483Z,101986.16
2022-11-13T09:30:46.001Z,101988.13
2022-11-13T09:33:15.583Z,101980.06
2022-11-13T09:35:44.987Z,101979.44
2022-11-13T09:38:16.851Z,101979.03
2022-11-13T09:40:55.110Z,101970.41
2022-11-13T09:43:36.178Z,101974.56
2022-11-13T09:46:10.018Z,101975.66
2022-11-13T09:48:41.620Z,101964.09
2022-11-13T09:51:16.375Z,101965.31
2022-11-13T09:53:44.952Z,101965.19
2022-11-13T09:56:29.311Z,101967.69
2022-11-13T09:59:08.311Z,101962.25
2022-11-13T10:01:52.195Z,101953.59
2022-11-13T10:04:30.735Z,101960.47
2022-11-13T10:07:15.402Z,101963.09
2022-11-13T10:10:03.191Z,101955.44
2022-11-13T10:12:33.833Z,101960.28
2022-11-13T10:15:05.310Z,101964.09
2022-11-13T10:17:39.070Z,101958.75
2022-11-13T10:20:15.399Z,101952.31
2022-11-13T10:22:51.469Z,101952.03
2022-11-13T10:25:23.486Z,101953.22
2022-11-13T10:27:58.108Z,101951.41
2022-11-13T10:30:26.779Z,101945.50
2022-11-13T10:32:55.355Z,101938.19
2022-11-13T10:35:45.516Z,101936.91
2022-11-13T10:38:25.597Z,101933.03
2022-11-13T10:41:04.808Z,101932.88
2022-11-13T10:43:35.557Z,101938.19
2022-11-13T10:46:07.294Z,101936.94
2022-11-13T10:48:37.730Z,101929.28
2022-11-13T10:51:20.989Z,101931.41
2022-11-13T10:53:49.915Z,101930.16
2022-11-13T10:56:33.024Z,101929.47
2022-11-13T10:59:05.708Z,101928.25
2022-11-13T11:01:34.087Z,101918.72
2022-11-13T11:04:05.503Z,101919.56
2022-11-13T11:07:12.572Z,101920.16
2022-11-13T11:09:29.799Z,101903.59
2022-11-13T11:12:18.804Z,101902.72
2022-11-13T11:15:22.050Z,101898.47
2022-11-13T11:17:55.015Z,101895.06
2022-11-13T11:20:42.281Z,101883.56
2022-11-13T11:23:26.360Z,101896.78
2022-11-13T11:26:00.784Z,101883.16
2022-11-13T11:28:36.910Z,101882.97
2022-11-13T11:31:21.797Z,101873.38
2022-11-13T11:33:54.744Z,101870.59
2022-11-13T11:36:33.287Z,101871.88
2022-11-13T11:39:16.775Z,101865.06
2022-11-13T11:41:53.007Z,101861.22
2022-11-13T11:44:32.316Z,101859.06
2022-11-13T11:47:01.983Z,101849.91
2022-11-13T11:49:31.162Z,101855.00
2022-11-13T11:52:15.332Z,101846.91
2022-11-13T11:54:47.179Z,101850.53
2022-11-13T11:57:36.837Z,101847.31
2022-11-13T12:00:11.169Z,101847.28
2022-11-13T12:03:17.354Z,101830.59
2022-11-13T12:05:57.987Z,101833.84
2022-11-13T12:08:37.547Z,101830.44
2022-11-13T12:11:15.641Z,101821.69
2022-11-13T12:13:54.935Z,101821.69
2022-11-13T12:16:31.194Z,101810.38
2022-11-13T12:19:13.651Z,101803.31
2022-11-13T12:21:52.355Z,101795.22
2022-11-13T12:24:46.044Z,101793.69
2022-11-13T12:27:26.838Z,101788.00
2022-11-13T12:30:11.275Z,101775.84
2022-11-13T12:33:10.340Z,101774.03
2022-11-13T12:35:40.624Z,101762.44
2022-11-13T12:38:22.622Z,101759.34
2022-11-13T12:40:58.028Z,101761.31
2022-11-13T12:44:00.638Z,101754.22
2022-11-13T12:46:40.828Z,101748.03
2022-11-13T12:49:33.275Z,101751.56
2022-11-13T12:52:06.112Z,101737.97
2022-11-13T12:54:37.745Z,101742.91
2022-11-13T12:57:27.149Z,101736.94
2022-11-13T13:00:11.647Z,101743.84
2022-11-13T13:03:09.621Z,101737.00
2022-11-13T13:06:13.892Z,101721.31
2022-11-13T13:09:04.676Z,101719.81
2022-11-13T13:11:44.842Z,101703.88
2022-11-13T13:14:48.161Z,101707.25
2022-11-13T13:17:21.546Z,101700.28
2022-11-13T13:20:01.079Z,101697.16
2022-11-13T13:22:32.886Z,101699.22
2022-11-13T13:25:07.536Z,101692.00
2022-11-13T13:27:40.586Z,101690.31
2022-11-13T13:30:22.423Z,101690.56
2022-11-13T13:33:07.378Z,101673.81
2022-11-13T13:35:43.339Z,101680.19
2022-11-13T13:38:23.319Z,101671.81
2022-11-13T13:41:17.001Z,101667.69
2022-11-13T13:43:58.931Z,101662.50
2022-11-13T13:46:31.494Z,101659.25
2022-11-13T13:49:06.806Z,101652.56
2022-11-13T13:51:41.959Z,101654.63
2022-11-13T13:54:18.491Z,101651.03
2022-11-13T13:56:48.306Z,101651.84
2022-11-13T13:59:20.948Z,101642.66
2022-11-13T14:01:58.300Z,101644.06
2022-11-13T14:04:29.934Z,101637.31
2022-11-13T14:07:01.252Z,101638.50
2022-11-13T14:09:31.807Z,101635.94
2022-11-13T14:12:09.333Z,101635.47
2022-11-13T14:14:41.031Z,101634.16
2022-11-13T14:17:12.175Z,101634.28
2022-11-13T14:19:40.835Z,101620.28
2022-11-13T14:22:13.338Z,101617.13
2022-11-13T14:24:49.313Z,101624.38
2022-11-13T14:27:23.546Z,101622.38
2022-11-13T14:29:54.985Z,101627.81
2022-11-13T14:32:28.827Z,101622.81
2022-11-13T14:35:02.157Z,101633.41
2022-11-13T14:37:37.177Z,101634.03
2022-11-13T14:40:16.375Z,101628.53
2022-11-13T14:42:50.468Z,101631.97
2022-11-13T14:45:22.523Z,101633.22
2022-11-13T14:48:02.763Z,101624.19
2022-11-13T14:50:33.587Z,101622.19
2022-11-13T14:53:04.494Z,101621.88
2022-11-13T14:55:37.514Z,101617.22
2022-11-13T14:58:07.336Z,101618.69
2022-11-13T15:00:38.333Z,101612.44
2022-11-13T15:03:07.701Z,101609.75
2022-11-13T15:05:36.087Z,101607.22
2022-11-13T15:08:04.565Z,101599.81
2022-11-13T15:10:33.256Z,101600.34
2022-11-13T15:13:02.286Z,101597.34
2022-11-13T15:15:33.851Z,101591.44
2022-11-13T15:18:04.018Z,101591.63
2022-11-13T15:20:32.942Z,101585.03
2022-11-13T15:23:02.449Z,101583.31
2022-11-13T15:25:30.845Z,101590.09
2022-11-13T15:27:59.181Z,101588.41
2022-11-13T15:30:27.568Z,101581.56
2022-11-13T15:32:57.446Z,101581.75
2022-11-13T15:35:26.725Z,101584.94
2022-11-13T15:37:55.029Z,101581.09
2022-11-13T15:40:23.400Z,101574.69
2022-11-13T15:42:51.873Z,101580.72
2022-11-13T15:45:20.216Z,101579.25
2022-11-13T15:47:48.542Z,101584.41
2022-11-13T15:50:18.803Z,101583.78
2022-11-13T15:52:50.756Z,101584.25
2022-11-13T15:55:28.700Z,101574.63
2022-11-13T15:57:58.480Z,101569.31
2022-11-13T16:00:29.478Z,101562.53
2022-11-13T16:02:58.777Z,101563.03
2022-11-13T16:05:29.814Z,101550.22
2022-11-13T16:07:58.455Z,101551.94
2022-11-13T16:10:27.098Z,101553.00
2022-11-13T16:12:55.685Z,101557.47
2022-11-13T16:15:24.060Z,101545.50
2022-11-13T16:17:58.422Z,101550.88
2022-11-13T16:20:28.154Z,101558.91
2022-11-13T16:22:56.472Z,101543.13
2022-11-13T16:25:25.267Z,101544.47
2022-11-13T16:27:53.968Z,101539.13
2022-11-13T16:30:24.929Z,101541.31
2022-11-13T16:32:53.305Z,101535.03
2022-11-13T16:35:22.192Z,101540.13
2022-11-13T16:37:51.894Z,101531.28
2022-11-13T16:40:23.909Z,101533.22
2022-11-13T16:42:52.726Z,101524.97
2022-11-13T16:45:22.469Z,101518.84
2022-11-13T16:47:51.488Z,101518.38
2022-11-13T16:50:23.894Z,101510.28
2022-11-13T16:52:54.027Z,101509.19
2022-11-13T16:55:22.427Z,101511.50
2022-11-13T16:57:50.767Z,101509.44
2022-11-13T17:00:20.844Z,101516.66
2022-11-13T17:02:52.664Z,101513.88
2022-11-13T17:05:24.027Z,101504.59
2022-11-13T17:07:59.519Z,101492.78
2022-11-13T17:10:32.616Z,101499.44
2022-11-13T17:13:01.579Z,101488.72
2022-11-13T17:15:29.942Z,101493.00
2022-11-13T17:17:59.636Z,101490.31
2022-11-13T17:20:28.240Z,101490.16
2022-11-13T17:22:57.914Z,101489.41
2022-11-13T17:25:28.133Z,101491.13
2022-11-13T17:27:56.550Z,101498.19
2022-11-13T17:30:25.297Z,101481.63
2022-11-13T17:32:53.629Z,101486.69
2022-11-13T17:35:22.039Z,101478.84
2022-11-13T17:37:50.374Z,101485.22
2022-11-13T17:40:20.199Z,101469.06
2022-11-13T17:42:49.531Z,101474.69
2022-11-13T17:45:18.132Z,101466.84
2022-11-13T17:47:46.441Z,101462.16
2022-11-13T17:50:15.214Z,101466.28
2022-11-13T17:52:43.604Z,101461.09
2022-11-13T17:55:14.068Z,101461.22
2022-11-13T17:57:44.476Z,101467.31
2022-11-13T18:00:13.939Z,101458.78
2022-11-13T18:02:42.307Z,101463.72
2022-11-13T18:05:10.962Z,101463.94
2022-11-13T18:07:40.222Z,101464.31
2022-11-13T18:10:10.980Z,101458.41
2022-11-13T18:12:39.540Z,101456.47
2022-11-13T18:15:10.172Z,101448.84
2022-11-13T18:17:38.493Z,101445.59
2022-11-13T18:20:08.243Z,101450.56
2022-11-13T18:22:36.677Z,101444.78
2022-11-13T18:25:05.637Z,101439.22
2022-11-13T18:27:33.972Z,101446.19
2022-11-13T18:30:02.367Z,101451.75
2022-11-13T18:32:32.081Z,101444.78
2022-11-13T18:35:00.455Z,101444.00
2022-11-13T18:37:28.800Z,101443.19
2022-11-13T18:39:58.430Z,101432.09
2022-11-13T18:42:26.962Z,101434.63
2022-11-13T18:44:55.548Z,101432.34
2022-11-13T18:47:23.867Z,101436.22
2022-11-13T18:49:53.968Z,101424.63
2022-11-13T18:52:22.308Z,101423.41
2022-11-13T18:54:50.662Z,101423.47
2022-11-13T18:57:18.972Z,101422.19
2022-11-13T18:59:47.295Z,101428.16
2022-11-13T19:02:15.702Z,101419.84
2022-11-13T19:04:44.689Z,101419.47
2022-11-13T19:07:14.456Z,101420.06
2022-11-13T19:09:46.058Z,101415.63
2022-11-13T19:12:14.415Z,101423.00
2022-11-13T19:14:42.895Z,101417.47
2022-11-13T19:17:11.246Z,101420.03
2022-11-13T19:19:42.361Z,101415.22
2022-11-13T19:22:10.761Z,101420.78
2022-11-13T19:24:40.571Z,101409.22
2022-11-13T19:27:08.895Z,101415.63
2022-11-13T19:29:37.264Z,101413.94
2022-11-13T19:32:06.570Z,101412.69
2022-11-13T19:34:34.934Z,101425.31
2022-11-13T19:37:03.758Z,101425.22
2022-11-13T19:39:32.135Z,101415.84
2022-11-13T19:42:01.805Z,101412.94
2022-11-13T19:44:30.177Z,101409.78
2022-11-13T19:46:58.562Z,101426.03
2022-11-13T19:49:27.393Z,101418.72
2022-11-13T19:51:55.773Z,101411.72
2022-11-13T19:54:24.108Z,101414.09
2022-11-13T19:56:52.430Z,101417.38
2022-11-13T19:59:22.107Z,101413.41
2022-11-13T20:01:50.567Z,101411.34
2022-11-13T20:04:19.020Z,101407.56
2022-11-13T20:06:47.455Z,101408.78
2022-11-13T20:09:15.828Z,101402.56
2022-11-13T20:11:45.265Z,101399.03
2022-11-13T20:14:14.149Z,101398.41
2022-11-13T20:16:43.878Z,101398.88
2022-11-13T20:19:12.203Z,101394.81
2022-11-13T20:21:40.954Z,101395.47
2022-11-13T20:24:11.469Z,101401.25
2022-11-13T20:26:39.865Z,101383.19
2022-11-13T20:29:08.174Z,101383.63
2022-11-13T20:31:36.520Z,101384.66
2022-11-13T20:34:06.352Z,101382.09
2022-11-13T20:36:34.727Z,101379.94
2022-11-13T20:39:08.126Z,101371.88
2022-11-13T20:41:37.977Z,101378.47
2022-11-13T20:44:06.931Z,101372.56
2022-11-13T20:46:35.288Z,101376.88
2022-11-13T20:49:05.483Z,101372.56
2022-11-13T20:51:33.839Z,101373.66
2022-11-13T20:54:02.227Z,101366.44
2022-11-13T20:56:30.602Z,101353.72
2022-11-13T20:58:59.108Z,101358.59
2022-11-13T21:01:28.015Z,101347.28
2022-11-13T21:03:59.460Z,101349.44
2022-11-13T21:06:29.268Z,101342.81
2022-11-13T21:08:58.123Z,101340.97
2022-11-13T21:11:26.972Z,101348.94
2022-11-13T21:13:57.522Z,101354.81
2022-11-13T21:16:28.107Z,101337.59
2022-11-13T21:18:57.527Z,101342.28
2022-11-13T21:21:29.025Z,101340.44
2022-11-13T21:23:58.851Z,101334.97
2022-11-13T21:26:28.442Z,101332.84
2022-11-13T21:28:57.752Z,101330.44
2022-11-13T21:31:26.128Z,101331.16
2022-11-13T21:33:55.052Z,101340.34
2022-11-13T21:36:27.313Z,101337.91
2022-11-13T21:38:57.581Z,101339.13
2022-11-13T21:41:26.694Z,101327.53
2022-11-13T21:43:58.948Z,101330.81
2022-11-13T21:46:28.873Z,101334.00
2022-11-13T21:48:59.733Z,101332.38
2022-11-13T21:51:28.394Z,101327.16
2022-11-13T21:53:58.736Z,101318.88
2022-11-13T21:56:29.062Z,101321.84
2022-11-13T21:58:57.797Z,101311.69
2022-11-13T22:01:26.857Z,101310.84
2022-11-13T22:03:55.682Z,101311.56
2022-11-13T22:06:26.869Z,101312.78
2022-11-13T22:08:58.572Z,101312.31
2022-11-13T22:11:29.182Z,101298.47
2022-11-13T22:13:58.014Z,101304.72
2022-11-13T22:16:28.603Z,101305.78
2022-11-13T22:18:59.043Z,101301.53
2022-11-13T22:21:29.340Z,101308.53
2022-11-13T22:24:00.107Z,101303.63
2022-11-13T22:26:31.716Z,101309.16
2022-11-13T22:29:01.434Z,101304.72
2022-11-13T22:31:31.798Z,101296.88
2022-11-13T22:34:00.821Z,101294.34
2022-11-13T22:36:31.814Z,101299.03
2022-11-13T22:39:02.324Z,101294.03
2022-11-13T22:41:32.998Z,101287.19
2022-11-13T22:44:04.135Z,101292.09
2022-11-13T22:46:35.482Z,101288.50
2022-11-13T22:49:05.688Z,101286.44
2022-11-13T22:51:38.093Z,101285.81
2022-11-13T22:54:12.477Z,101286.88
2022-11-13T22:56:42.263Z,101284.72
2022-11-13T22:59:13.312Z,101276.22
2022-11-13T23:01:43.949Z,101279.69
2022-11-13T23:04:15.144Z,101284.34
2022-11-13T23:06:44.031Z,101270.75
2022-11-13T23:09:13.786Z,101281.56
2022-11-13T23:11:44.019Z,101279.19
2022-11-13T23:14:15.820Z,101279.13
2022-11-13T23:16:44.227Z,101279.03
2022-11-13T23:19:12.932Z,101267.28
2022-11-13T23:21:41.431Z,101262.97
2022-11-13T23:24:13.263Z,101254.38
2022-11-13T23:26:41.593Z,101256.53
2022-11-13T23:29:09.983Z,101256.75
2022-11-13T23:31:38.318Z,101255.31
2022-11-13T23:34:06.713Z,101253.22
2022-11-13T23:36:35.095Z,101249.00
2022-11-13T23:39:03.516Z,101243.00
2022-11-13T23:41:33.334Z,101231.81
2022-11-13T23:44:08.681Z,101233.88
2022-11-13T23:46:38.031Z,101232.19
2022-11-13T23:49:06.390Z,101229.94
2022-11-13T23:51:34.730Z,101225.34
2022-11-13T23:54:03.243Z,101222.94
2022-11-13T23:56:32.921Z,101228.41
2022-11-13T23:59:01.263Z,101224.66
